createdAt,value
2023-10-02T00:01:57.747Z,92.20
2023-10-02T00:04:26.297Z,92.30
2023-10-02T00:07:09.939Z,92.30
2023-10-02T00:09:39.095Z,92.30
2023-10-02T00:12:13.702Z,92.50
2023-10-02T00:14:44.557Z,92.40
2023-10-02T00:17:15.950Z,92.40
2023-10-02T00:19:51.435Z,92.40
2023-10-02T00:22:40.251Z,92.60
2023-10-02T00:25:18.592Z,92.60
2023-10-02T00:27:50.341Z,92.70
2023-10-02T00:30:22.584Z,92.80
2023-10-02T00:32:57.316Z,92.80
2023-10-02T00:35:25.307Z,93.00
2023-10-02T00:37:57.042Z,93.00
2023-10-02T00:40:34.227Z,93.20
2023-10-02T00:43:25.235Z,93.20
2023-10-02T00:46:00.145Z,93.30
2023-10-02T00:48:32.025Z,93.30
2023-10-02T00:51:07.490Z,93.40
2023-10-02T00:53:48.129Z,93.40
2023-10-02T00:56:22.926Z,93.40
2023-10-02T00:59:17.715Z,93.50
2023-10-02T01:01:45.171Z,93.50
2023-10-02T01:04:26.049Z,93.60
2023-10-02T01:07:06.421Z,93.50
2023-10-02T01:09:39.707Z,93.40
2023-10-02T01:12:12.305Z,93.50
2023-10-02T01:15:08.014Z,93.40
2023-10-02T01:17:39.361Z,93.50
2023-10-02T01:20:29.933Z,93.60
2023-10-02T01:23:14.368Z,93.50
2023-10-02T01:25:42.276Z,93.40
2023-10-02T01:28:11.764Z,93.50
2023-10-02T01:30:40.989Z,93.50
2023-10-02T01:33:13.974Z,93.50
2023-10-02T01:35:49.840Z,93.50
2023-10-02T01:38:33.202Z,93.40
2023-10-02T01:41:09.818Z,93.40
2023-10-02T01:43:50.840Z,93.60
2023-10-02T01:46:27.161Z,93.50
2023-10-02T01:48:56.074Z,93.60
2023-10-02T01:51:29.831Z,93.50
2023-10-02T01:54:01.899Z,93.40
2023-10-02T01:56:36.232Z,93.40
2023-10-02T01:59:17.035Z,93.40
2023-10-02T02:01:48.658Z,93.30
2023-10-02T02:04:16.465Z,93.30
2023-10-02T02:06:54.530Z,93.30
2023-10-02T02:09:26.002Z,93.30
2023-10-02T02:12:11.291Z,93.30
2023-10-02T02:14:54.030Z,93.40
2023-10-02T02:17:43.048Z,93.50
2023-10-02T02:20:34.214Z,93.60
2023-10-02T02:23:11.391Z,93.60
2023-10-02T02:25:43.035Z,93.70
2023-10-02T02:28:10.940Z,93.70
2023-10-02T02:30:42.038Z,93.70
2023-10-02T02:33:13.916Z,93.70
2023-10-02T02:35:41.383Z,93.80
2023-10-02T02:38:18.208Z,94.00
2023-10-02T02:40:45.670Z,94.20
2023-10-02T02:43:20.787Z,94.20
2023-10-02T02:45:48.732Z,94.40
2023-10-02T02:48:17.870Z,94.30
2023-10-02T02:50:45.758Z,94.20
2023-10-02T02:53:24.826Z,94.40
2023-10-02T02:56:25.580Z,94.40
2023-10-02T02:58:57.705Z,94.30
2023-10-02T03:01:26.195Z,94.30
2023-10-02T03:03:57.262Z,94.30
2023-10-02T03:06:25.723Z,94.30
2023-10-02T03:08:59.691Z,94.10
2023-10-02T03:11:35.209Z,94.20
2023-10-02T03:14:14.700Z,94.20
2023-10-02T03:16:47.168Z,94.20
2023-10-02T03:19:17.680Z,94.30
2023-10-02T03:21:48.724Z,94.30
2023-10-02T03:24:20.836Z,94.20
2023-10-02T03:26:54.967Z,94.20
2023-10-02T03:29:27.938Z,94.30
2023-10-02T03:31:59.452Z,94.20
2023-10-02T03:34:30.251Z,94.20
2023-10-02T03:37:12.119Z,94.30
2023-10-02T03:40:00.467Z,94.20
2023-10-02T03:42:35.030Z,94.20
2023-10-02T03:45:06.761Z,94.20
2023-10-02T03:47:39.199Z,94.30
2023-10-02T03:50:14.361Z,94.40
2023-10-02T03:52:47.545Z,94.30
2023-10-02T03:55:20.762Z,94.40
2023-10-02T03:57:52.140Z,94.60
2023-10-02T04:00:23.647Z,94.60
2023-10-02T04:02:58.580Z,94.50
2023-10-02T04:05:55.873Z,94.60
2023-10-02T04:08:24.423Z,94.60
2023-10-02T04:10:57.988Z,94.40
2023-10-02T04:13:36.527Z,94.60
2023-10-02T04:16:23.880Z,94.70
2023-10-02T04:19:00.856Z,94.70
2023-10-02T04:21:30.595Z,94.80
2023-10-02T04:24:01.533Z,94.80
2023-10-02T04:26:36.081Z,94.80
2023-10-02T04:29:25.607Z,94.90
2023-10-02T04:32:15.083Z,95.00
2023-10-02T04:34:57.792Z,94.90
2023-10-02T04:37:25.815Z,95.00
2023-10-02T04:39:57.583Z,95.10
2023-10-02T04:42:47.402Z,95.00
2023-10-02T04:45:27.328Z,95.10
2023-10-02T04:47:57.232Z,95.10
2023-10-02T04:50:25.252Z,95.10
2023-10-02T04:53:00.269Z,95.10
2023-10-02T04:55:45.267Z,95.10
2023-10-02T04:58:21.532Z,95.00
2023-10-02T05:01:03.967Z,94.90
2023-10-02T05:03:51.201Z,94.90
2023-10-02T05:06:38.960Z,94.50
2023-10-02T05:09:20.509Z,94.30
2023-10-02T05:11:54.643Z,93.90
2023-10-02T05:14:49.242Z,93.80
2023-10-02T05:17:42.394Z,93.60
2023-10-02T05:20:17.853Z,93.40
2023-10-02T05:23:00.786Z,93.10
2023-10-02T05:25:39.910Z,92.50
2023-10-02T05:28:08.738Z,91.80
2023-10-02T05:30:46.199Z,91.20
2023-10-02T05:33:17.823Z,90.60
2023-10-02T05:35:47.869Z,90.00
2023-10-02T05:38:19.730Z,89.90
2023-10-02T05:40:55.240Z,89.40
2023-10-02T05:43:27.563Z,88.90
2023-10-02T05:45:55.193Z,88.60
2023-10-02T05:48:26.641Z,88.50
2023-10-02T05:51:11.616Z,88.10
2023-10-02T05:53:39.260Z,87.70
2023-10-02T05:56:13.790Z,87.80
2023-10-02T05:58:50.334Z,87.40
2023-10-02T06:01:38.924Z,86.50
2023-10-02T06:04:08.118Z,86.10
2023-10-02T06:17:14.518Z,84.90
2023-10-02T06:19:47.517Z,81.00
2023-10-02T06:22:20.306Z,78.90
2023-10-02T06:24:49.654Z,74.60
2023-10-02T06:27:18.861Z,74.30
2023-10-02T06:29:53.694Z,71.30
2023-10-02T06:32:22.274Z,69.10
2023-10-02T06:34:58.257Z,66.50
2023-10-02T06:37:37.663Z,65.10
2023-10-02T06:40:08.568Z,60.50
2023-10-02T06:42:50.408Z,60.10
2023-10-02T06:45:26.577Z,58.00
2023-10-02T06:48:00.122Z,56.00
2023-10-02T06:50:32.981Z,53.40
2023-10-02T06:53:03.904Z,52.30
2023-10-02T06:55:34.327Z,50.00
2023-10-02T06:58:04.949Z,49.00
2023-10-02T07:00:52.220Z,48.30
2023-10-02T07:03:19.877Z,47.40
2023-10-02T07:05:49.621Z,46.90
2023-10-02T07:08:22.873Z,44.90
2023-10-02T07:10:51.944Z,44.40
2023-10-02T07:13:23.391Z,42.50
2023-10-02T07:16:01.460Z,43.00
2023-10-02T07:18:40.022Z,42.70
2023-10-02T07:21:11.615Z,42.40
2023-10-02T07:23:42.734Z,41.90
2023-10-02T07:26:46.203Z,41.10
2023-10-02T07:29:14.979Z,41.10
2023-10-02T07:31:46.139Z,41.00
2023-10-02T07:41:08.148Z,39.60
2023-10-02T07:43:44.088Z,39.40
2023-10-02T07:46:27.861Z,38.80
2023-10-02T07:49:23.684Z,38.80
2023-10-02T07:51:58.891Z,38.50
2023-10-02T07:54:46.113Z,38.70
2023-10-02T07:57:19.786Z,38.70
2023-10-02T07:59:49.179Z,38.20
2023-10-02T08:02:24.702Z,38.10
2023-10-02T08:05:02.669Z,37.70
2023-10-02T08:07:46.494Z,37.30
2023-10-02T08:10:16.685Z,37.40
2023-10-02T08:15:52.696Z,36.80
2023-10-02T08:18:57.932Z,37.20
2023-10-02T08:21:47.878Z,37.40
2023-10-02T08:24:16.258Z,37.20
2023-10-02T08:26:47.369Z,37.20
2023-10-02T08:29:20.638Z,37.00
2023-10-02T08:31:51.095Z,37.00
2023-10-02T08:34:26.078Z,36.70
2023-10-02T08:37:12.142Z,36.80
2023-10-02T08:39:41.939Z,36.60
2023-10-02T08:42:11.358Z,36.30
2023-10-02T08:44:42.436Z,36.10
2023-10-02T08:47:14.351Z,36.00
2023-10-02T08:49:44.163Z,36.20
2023-10-02T08:52:17.529Z,36.10
2023-10-02T08:54:49.032Z,36.10
2023-10-02T08:57:20.165Z,36.00
2023-10-02T09:00:03.501Z,36.10
2023-10-02T09:02:32.529Z,36.40
2023-10-02T09:05:00.412Z,36.50
2023-10-02T09:07:47.035Z,36.70
2023-10-02T09:10:27.050Z,36.60
2023-10-02T09:13:19.596Z,36.90
2023-10-02T09:15:55.537Z,37.00
2023-10-02T09:18:59.480Z,37.20
2023-10-02T09:21:41.609Z,37.60
2023-10-02T09:24:25.628Z,38.00
2023-10-02T09:26:59.187Z,37.80
2023-10-02T09:29:29.203Z,38.00
2023-10-02T09:32:00.002Z,38.20
2023-10-02T09:35:10.139Z,38.40
2023-10-02T09:38:51.648Z,38.20
2023-10-02T09:41:45.049Z,38.90
2023-10-02T09:44:20.445Z,40.40
2023-10-02T09:47:22.752Z,41.50
2023-10-02T09:50:36.504Z,42.40
2023-10-02T09:53:10.728Z,43.10
2023-10-02T09:56:03.785Z,44.30
2023-10-02T09:58:38.967Z,44.30
2023-10-02T10:01:35.605Z,43.30
2023-10-02T10:04:30.000Z,42.60
2023-10-02T10:07:11.998Z,42.20
2023-10-02T10:09:53.906Z,42.10
2023-10-02T10:12:56.480Z,42.60
2023-10-02T10:15:30.403Z,43.00
2023-10-02T10:17:58.680Z,43.10
2023-10-02T10:20:32.299Z,43.60
2023-10-02T10:23:33.171Z,43.60
2023-10-02T10:26:18.475Z,43.40
2023-10-02T10:28:55.056Z,42.90
2023-10-02T10:31:35.365Z,43.20
2023-10-02T10:34:02.728Z,43.30
2023-10-02T10:36:39.355Z,43.10
2023-10-02T10:39:32.594Z,43.60
2023-10-02T10:42:03.688Z,44.00
2023-10-02T10:44:34.474Z,44.70
2023-10-02T10:47:05.399Z,44.80
2023-10-02T10:50:09.229Z,44.10
2023-10-02T10:52:37.046Z,44.50
2023-10-02T10:55:33.976Z,45.20
2023-10-02T10:58:07.123Z,45.80
2023-10-02T11:00:41.978Z,46.40
2023-10-02T11:03:16.653Z,46.80
2023-10-02T11:05:45.078Z,47.30
2023-10-02T11:08:26.918Z,47.40
2023-10-02T11:11:27.969Z,47.60
2023-10-02T11:14:04.225Z,47.80
2023-10-02T11:16:46.304Z,47.70
2023-10-02T11:19:23.439Z,47.40
2023-10-02T11:22:04.878Z,46.30
2023-10-02T11:24:38.919Z,46.60
2023-10-02T11:27:24.129Z,46.70
2023-10-02T11:30:12.105Z,46.60
2023-10-02T11:33:00.681Z,46.90
2023-10-02T11:35:39.749Z,47.00
2023-10-02T11:38:09.334Z,47.20
2023-10-02T11:40:38.588Z,47.20
2023-10-02T11:43:06.270Z,47.20
2023-10-02T11:45:37.973Z,47.40
2023-10-02T11:48:08.735Z,47.80
2023-10-02T11:50:43.486Z,47.80
2023-10-02T11:53:15.028Z,48.00
2023-10-02T11:55:43.314Z,48.40
2023-10-02T11:58:11.610Z,48.30
2023-10-02T12:00:40.001Z,48.40
2023-10-02T12:03:07.531Z,48.40
2023-10-02T12:05:39.455Z,48.60
2023-10-02T12:08:07.114Z,48.60
2023-10-02T12:10:40.787Z,48.80
2023-10-02T12:13:13.745Z,48.80
2023-10-02T12:15:50.475Z,48.90
2023-10-02T12:18:18.262Z,48.90
2023-10-02T12:20:47.508Z,48.90
2023-10-02T12:23:16.401Z,49.20
2023-10-02T12:25:49.551Z,49.30
2023-10-02T12:28:17.370Z,49.70
2023-10-02T12:30:44.886Z,49.80
2023-10-02T12:33:13.889Z,49.70
2023-10-02T12:35:41.875Z,50.10
2023-10-02T12:38:09.460Z,49.60
2023-10-02T12:40:37.282Z,49.00
2023-10-02T12:43:05.217Z,48.90
2023-10-02T12:45:38.703Z,48.30
2023-10-02T12:48:08.055Z,48.00
2023-10-02T12:50:43.762Z,48.30
2023-10-02T12:53:12.781Z,48.40
2023-10-02T12:55:47.238Z,48.50
2023-10-02T12:58:17.394Z,48.80
2023-10-02T13:00:47.420Z,48.70
2023-10-02T13:03:17.288Z,49.00
2023-10-02T13:05:48.085Z,49.40
2023-10-02T13:08:18.911Z,49.70
2023-10-02T13:10:46.981Z,50.10
2023-10-02T13:13:18.150Z,50.60
2023-10-02T13:15:57.412Z,50.80
2023-10-02T13:18:29.026Z,50.80
2023-10-02T13:21:00.027Z,50.80
2023-10-02T13:23:27.907Z,50.40
2023-10-02T13:25:56.425Z,50.70
2023-10-02T13:28:40.773Z,51.00
2023-10-02T13:31:20.925Z,51.50
2023-10-02T13:33:56.369Z,51.70
2023-10-02T13:36:26.759Z,52.20
2023-10-02T13:39:00.529Z,52.60
2023-10-02T13:41:29.524Z,52.50
2023-10-02T13:43:57.530Z,52.70
2023-10-02T13:46:28.178Z,53.20
2023-10-02T13:49:05.637Z,53.40
2023-10-02T13:51:33.570Z,53.90
2023-10-02T13:54:01.106Z,54.30
2023-10-02T13:56:35.171Z,54.50
2023-10-02T13:59:03.569Z,54.80
2023-10-02T14:01:37.624Z,55.00
2023-10-02T14:04:08.578Z,55.10
2023-10-02T14:06:37.198Z,55.20
2023-10-02T14:09:05.792Z,55.30
2023-10-02T14:11:34.836Z,55.60
2023-10-02T14:14:02.827Z,55.90
2023-10-02T14:16:32.097Z,55.90
2023-10-02T14:19:01.941Z,56.20
2023-10-02T14:21:30.886Z,56.40
2023-10-02T14:24:02.241Z,56.40
2023-10-02T14:26:30.978Z,56.80
2023-10-02T14:29:00.753Z,56.60
2023-10-02T14:31:33.222Z,57.00
2023-10-02T14:34:02.656Z,56.90
2023-10-02T14:36:31.197Z,57.30
2023-10-02T14:39:02.488Z,57.50
2023-10-02T14:41:30.149Z,57.60
2023-10-02T14:43:59.669Z,58.10
2023-10-02T14:46:27.308Z,58.30
2023-10-02T14:48:59.970Z,58.30
2023-10-02T14:51:27.537Z,58.30
2023-10-02T14:53:55.061Z,58.40
2023-10-02T14:56:23.060Z,58.50
2023-10-02T14:58:52.327Z,58.80
2023-10-02T15:01:21.141Z,59.20
2023-10-02T15:03:50.558Z,59.90
2023-10-02T15:06:18.377Z,60.60
2023-10-02T15:08:45.915Z,60.90
2023-10-02T15:11:16.695Z,61.30
2023-10-02T15:13:46.800Z,61.80
2023-10-02T15:16:19.625Z,62.30
2023-10-02T15:18:49.755Z,62.90
2023-10-02T15:21:18.664Z,63.10
2023-10-02T15:23:47.368Z,63.90
2023-10-02T15:26:17.314Z,63.90
2023-10-02T15:28:45.088Z,64.40
2023-10-02T15:31:15.591Z,64.90
2023-10-02T15:33:44.695Z,65.10
2023-10-02T15:36:17.003Z,65.20
2023-10-02T15:38:49.026Z,65.60
2023-10-02T15:41:33.298Z,66.00
2023-10-02T15:44:03.298Z,66.00
2023-10-02T15:46:33.614Z,66.30
2023-10-02T15:49:04.977Z,66.40
2023-10-02T15:51:34.902Z,66.40
2023-10-02T15:54:02.491Z,66.70
2023-10-02T15:56:29.895Z,67.00
2023-10-02T15:58:57.572Z,67.20
2023-10-02T16:01:25.009Z,67.40
2023-10-02T16:03:52.983Z,67.80
2023-10-02T16:06:20.895Z,68.20
2023-10-02T16:08:49.525Z,68.60
2023-10-02T16:11:22.306Z,68.90
2023-10-02T16:13:51.339Z,68.80
2023-10-02T16:16:18.828Z,69.30
2023-10-02T16:18:48.359Z,69.50
2023-10-02T16:21:22.357Z,69.60
2023-10-02T16:23:50.824Z,70.00
2023-10-02T16:26:20.846Z,69.80
2023-10-02T16:28:50.140Z,70.80
2023-10-02T16:31:26.707Z,71.00
2023-10-02T16:33:54.899Z,70.80
2023-10-02T16:36:27.235Z,71.20
2023-10-02T16:39:05.279Z,70.80
2023-10-02T16:41:37.298Z,70.80
2023-10-02T16:44:06.410Z,71.00
2023-10-02T16:46:35.066Z,71.20
2023-10-02T16:49:03.303Z,71.60
2023-10-02T16:51:31.060Z,71.50
2023-10-02T16:53:59.087Z,71.80
2023-10-02T16:56:30.077Z,72.00
2023-10-02T16:58:57.339Z,72.30
2023-10-02T17:01:24.703Z,73.30
2023-10-02T17:03:52.658Z,73.60
2023-10-02T17:06:23.959Z,73.80
2023-10-02T17:08:53.673Z,74.00
2023-10-02T17:11:24.788Z,74.00
2023-10-02T17:13:52.428Z,74.20
2023-10-02T17:16:20.232Z,74.30
2023-10-02T17:18:47.954Z,74.70
2023-10-02T17:21:17.071Z,75.10
2023-10-02T17:23:44.575Z,75.40
2023-10-02T17:26:12.693Z,75.60
2023-10-02T17:28:40.283Z,75.80
2023-10-02T17:31:10.240Z,75.90
2023-10-02T17:33:49.517Z,75.80
2023-10-02T17:36:16.818Z,76.20
2023-10-02T17:38:44.829Z,76.40
2023-10-02T17:41:13.207Z,76.60
2023-10-02T17:43:40.702Z,76.70
2023-10-02T17:46:08.511Z,76.80
2023-10-02T17:48:36.294Z,77.10
2023-10-02T17:51:06.688Z,77.30
2023-10-02T17:53:34.307Z,77.40
2023-10-02T17:56:04.265Z,77.60
2023-10-02T17:58:31.627Z,77.70
2023-10-02T18:01:04.392Z,77.90
2023-10-02T18:03:35.193Z,78.00
2023-10-02T18:06:02.874Z,78.30
2023-10-02T18:08:30.242Z,78.50
2023-10-02T18:10:58.170Z,78.60
2023-10-02T18:13:25.629Z,78.90
2023-10-02T18:15:55.132Z,79.20
2023-10-02T18:18:23.169Z,79.30
2023-10-02T18:20:52.865Z,79.40
2023-10-02T18:23:20.746Z,79.40
2023-10-02T18:25:55.426Z,79.70
2023-10-02T18:28:23.156Z,80.00
2023-10-02T18:30:51.151Z,80.20
2023-10-02T18:33:19.273Z,80.30
2023-10-02T18:35:46.700Z,80.50
2023-10-02T18:38:14.360Z,80.60
2023-10-02T18:40:47.960Z,80.60
2023-10-02T18:43:16.549Z,80.50
2023-10-02T18:45:44.024Z,80.60
2023-10-02T18:48:12.883Z,80.70
2023-10-02T18:50:40.388Z,80.60
2023-10-02T18:53:08.362Z,80.70
2023-10-02T18:55:36.288Z,80.60
2023-10-02T18:58:06.882Z,80.90
2023-10-02T19:00:34.666Z,80.90
2023-10-02T19:03:03.982Z,81.20
2023-10-02T19:05:32.073Z,81.60
2023-10-02T19:08:01.714Z,81.80
2023-10-02T19:10:29.481Z,82.30
2023-10-02T19:12:58.714Z,82.60
2023-10-02T19:15:27.166Z,82.90
2023-10-02T19:17:54.656Z,83.50
2023-10-02T19:20:22.534Z,83.90
2023-10-02T19:22:50.200Z,84.20
2023-10-02T19:25:17.466Z,84.30
2023-10-02T19:27:47.455Z,84.60
2023-10-02T19:30:16.286Z,84.70
2023-10-02T19:32:45.164Z,84.90
2023-10-02T19:35:14.124Z,85.20
2023-10-02T19:37:41.540Z,85.80
2023-10-02T19:40:11.953Z,86.20
2023-10-02T19:42:39.319Z,86.60
2023-10-02T19:45:07.366Z,86.70
2023-10-02T19:47:35.074Z,87.10
2023-10-02T19:50:02.191Z,87.40
2023-10-02T19:52:31.568Z,87.50
2023-10-02T19:54:59.030Z,87.50
2023-10-02T19:57:26.150Z,87.60
2023-10-02T19:59:53.669Z,87.90
2023-10-02T20:02:21.103Z,87.90
2023-10-02T20:04:48.629Z,88.00
2023-10-02T20:07:16.459Z,88.10
2023-10-02T20:09:43.934Z,88.20
2023-10-02T20:12:11.321Z,88.30
2023-10-02T20:14:38.555Z,88.40
2023-10-02T20:17:06.794Z,88.50
2023-10-02T20:19:34.907Z,88.40
2023-10-02T20:22:06.696Z,88.40
2023-10-02T20:24:34.607Z,88.40
2023-10-02T20:27:01.869Z,88.30
2023-10-02T20:29:29.386Z,88.10
2023-10-02T20:31:56.936Z,88.00
2023-10-02T20:34:36.321Z,87.90
2023-10-02T20:37:05.972Z,88.00
2023-10-02T20:39:33.730Z,88.00
2023-10-02T20:42:02.138Z,87.70
2023-10-02T20:44:30.734Z,87.70
2023-10-02T20:47:07.831Z,87.40
2023-10-02T20:49:39.488Z,87.60
2023-10-02T20:52:07.251Z,87.40
2023-10-02T20:54:34.673Z,87.20
2023-10-02T20:57:02.571Z,86.90
2023-10-02T20:59:30.099Z,86.90
2023-10-02T21:01:58.036Z,86.80
2023-10-02T21:04:25.478Z,86.80
2023-10-02T21:06:53.656Z,86.80
2023-10-02T21:09:24.165Z,86.90
2023-10-02T21:11:53.032Z,86.90
2023-10-02T21:14:24.014Z,86.90
2023-10-02T21:16:52.470Z,86.90
2023-10-02T21:19:20.106Z,87.00
2023-10-02T21:21:51.983Z,86.90
2023-10-02T21:24:22.923Z,86.90
2023-10-02T21:26:51.078Z,87.00
2023-10-02T21:29:19.234Z,87.10
2023-10-02T21:31:47.048Z,87.10
2023-10-02T21:34:14.714Z,87.20
2023-10-02T21:36:43.017Z,87.30
2023-10-02T21:39:16.258Z,87.30
2023-10-02T21:41:46.135Z,87.30
2023-10-02T21:44:13.778Z,87.50
2023-10-02T21:46:41.236Z,87.60
2023-10-02T21:49:09.536Z,87.60
2023-10-02T21:51:36.691Z,87.80
2023-10-02T21:54:07.290Z,88.00
2023-10-02T21:56:36.545Z,88.30
2023-10-02T21:59:04.719Z,88.30
2023-10-02T22:01:32.360Z,88.50
2023-10-02T22:03:59.776Z,88.80
2023-10-02T22:06:27.558Z,89.20
2023-10-02T22:08:54.852Z,89.40
2023-10-02T22:11:22.656Z,89.70
2023-10-02T22:13:50.304Z,89.70
2023-10-02T22:16:19.689Z,89.70
2023-10-02T22:18:48.305Z,89.60
2023-10-02T22:21:21.669Z,89.70
2023-10-02T22:23:50.822Z,89.70
2023-10-02T22:26:19.003Z,89.70
2023-10-02T22:28:48.994Z,89.30
2023-10-02T22:31:17.089Z,89.30
2023-10-02T22:33:48.651Z,89.30
2023-10-02T22:36:17.568Z,89.20
2023-10-02T22:38:45.431Z,89.30
2023-10-02T22:41:13.071Z,89.10
2023-10-02T22:43:41.602Z,89.10
2023-10-02T22:46:10.385Z,89.00
2023-10-02T22:48:38.843Z,89.00
2023-10-02T22:51:06.390Z,89.10
2023-10-02T22:53:35.618Z,89.10
2023-10-02T22:56:04.586Z,89.00
2023-10-02T22:58:32.654Z,89.00
2023-10-02T23:00:59.976Z,89.00
2023-10-02T23:03:28.176Z,89.00
2023-10-02T23:05:55.911Z,89.00
2023-10-02T23:08:29.341Z,89.10
2023-10-02T23:10:57.619Z,89.20
2023-10-02T23:13:25.581Z,89.20
2023-10-02T23:15:52.769Z,89.30
2023-10-02T23:18:20.325Z,89.20
2023-10-02T23:20:48.940Z,89.40
2023-10-02T23:23:16.268Z,89.60
2023-10-02T23:25:43.922Z,89.80
2023-10-02T23:28:11.612Z,89.70
2023-10-02T23:30:42.659Z,89.60
2023-10-02T23:33:11.730Z,89.50
2023-10-02T23:35:44.823Z,89.40
2023-10-02T23:38:13.796Z,89.20
2023-10-02T23:40:45.908Z,89.30
2023-10-02T23:43:21.074Z,89.50
2023-10-02T23:45:49.280Z,89.50
2023-10-02T23:48:21.132Z,89.50
2023-10-02T23:50:49.426Z,89.40
2023-10-02T23:53:26.089Z,89.20
2023-10-02T23:56:02.275Z,89.40
2023-10-02T23:58:30.248Z,89.40
